sensor_id;sensor_type;location;lat;lon;timestamp;temperature;humidity
54590;DHT22;40485;53.172;5.416;2022-09-09T00:00:40;15.60;99.90
54590;DHT22;40485;53.172;5.416;2022-09-09T00:03:16;15.50;99.90
54590;DHT22;40485;53.172;5.416;2022-09-09T00:11:24;15.60;99.90
54590;DHT22;40485;53.172;5.416;2022-09-09T00:13:53;15.60;99.90
54590;DHT22;40485;53.172;5.416;2022-09-09T00:16:25;15.60;99.90
54590;DHT22;40485;53.172;5.416;2022-09-09T00:19:05;15.60;99.90
54590;DHT22;40485;53.172;5.416;2022-09-09T00:21:37;15.60;99.90
54590;DHT22;40485;53.172;5.416;2022-09-09T00:26:56;15.60;99.90
54590;DHT22;40485;53.172;5.416;2022-09-09T00:29:54;15.60;99.90
54590;DHT22;40485;53.172;5.416;2022-09-09T00:32:21;15.60;99.90
54590;DHT22;40485;53.172;5.416;2022-09-09T00:35:02;15.60;99.90
54590;DHT22;40485;53.172;5.416;2022-09-09T00:37:28;15.60;99.90
54590;DHT22;40485;53.172;5.416;2022-09-09T00:39:59;15.50;99.90
54590;DHT22;40485;53.172;5.416;2022-09-09T00:47:49;15.60;99.90
54590;DHT22;40485;53.172;5.416;2022-09-09T00:58:08;15.60;99.90
54590;DHT22;40485;53.172;5.416;2022-09-09T01:00:55;15.60;99.90
54590;DHT22;40485;53.172;5.416;2022-09-09T01:03:36;15.60;99.90
54590;DHT22;40485;53.172;5.416;2022-09-09T01:06:31;15.70;99.90
54590;DHT22;40485;53.172;5.416;2022-09-09T01:14:38;15.70;99.90
54590;DHT22;40485;53.172;5.416;2022-09-09T01:17:14;15.80;99.90
54590;DHT22;40485;53.172;5.416;2022-09-09T01:24:50;15.90;99.90
54590;DHT22;40485;53.172;5.416;2022-09-09T01:27:19;15.90;99.90
54590;DHT22;40485;53.172;5.416;2022-09-09T01:29:46;15.90;99.90
54590;DHT22;40485;53.172;5.416;2022-09-09T01:35:08;15.90;99.90
54590;DHT22;40485;53.172;5.416;2022-09-09T01:37:36;15.90;99.90
54590;DHT22;40485;53.172;5.416;2022-09-09T01:40:01;15.90;99.90
54590;DHT22;40485;53.172;5.416;2022-09-09T01:42:27;15.90;99.90
54590;DHT22;40485;53.172;5.416;2022-09-09T01:44:53;15.80;99.90
54590;DHT22;40485;53.172;5.416;2022-09-09T01:47:20;15.90;99.90
54590;DHT22;40485;53.172;5.416;2022-09-09T01:49:45;16.00;99.90
54590;DHT22;40485;53.172;5.416;2022-09-09T01:52:11;15.90;99.90
54590;DHT22;40485;53.172;5.416;2022-09-09T01:54:38;15.90;99.90
54590;DHT22;40485;53.172;5.416;2022-09-09T02:07:46;16.00;99.90
54590;DHT22;40485;53.172;5.416;2022-09-09T02:10:21;16.00;99.90
54590;DHT22;40485;53.172;5.416;2022-09-09T02:12:55;16.10;99.90
54590;DHT22;40485;53.172;5.416;2022-09-09T02:18:01;16.50;99.90
54590;DHT22;40485;53.172;5.416;2022-09-09T02:20:32;16.50;99.90
54590;DHT22;40485;53.172;5.416;2022-09-09T02:22:59;16.40;99.90
54590;DHT22;40485;53.172;5.416;2022-09-09T02:25:28;16.40;99.90
54590;DHT22;40485;53.172;5.416;2022-09-09T02:27:55;16.30;99.90
54590;DHT22;40485;53.172;5.416;2022-09-09T02:30:23;16.30;99.90
54590;DHT22;40485;53.172;5.416;2022-09-09T02:32:51;16.20;99.90
54590;DHT22;40485;53.172;5.416;2022-09-09T02:35:21;16.20;99.90
54590;DHT22;40485;53.172;5.416;2022-09-09T02:37:51;16.20;99.90
54590;DHT22;40485;53.172;5.416;2022-09-09T02:40:18;16.20;99.90
54590;DHT22;40485;53.172;5.416;2022-09-09T02:42:48;16.20;99.90
54590;DHT22;40485;53.172;5.416;2022-09-09T02:45:18;16.20;99.90
54590;DHT22;40485;53.172;5.416;2022-09-09T02:50:48;16.10;99.90
54590;DHT22;40485;53.172;5.416;2022-09-09T02:53:17;16.10;99.90
54590;DHT22;40485;53.172;5.416;2022-09-09T02:58:14;16.10;99.90
54590;DHT22;40485;53.172;5.416;2022-09-09T03:00:44;16.00;99.90
54590;DHT22;40485;53.172;5.416;2022-09-09T03:03:10;16.00;99.90
54590;DHT22;40485;53.172;5.416;2022-09-09T03:05:36;15.90;99.90
54590;DHT22;40485;53.172;5.416;2022-09-09T03:08:03;15.90;99.90
54590;DHT22;40485;53.172;5.416;2022-09-09T03:10:29;15.90;99.90
54590;DHT22;40485;53.172;5.416;2022-09-09T03:12:55;15.90;99.90
54590;DHT22;40485;53.172;5.416;2022-09-09T03:15:21;15.90;99.90
54590;DHT22;40485;53.172;5.416;2022-09-09T03:17:46;15.90;99.90
54590;DHT22;40485;53.172;5.416;2022-09-09T03:20:12;15.80;99.90
54590;DHT22;40485;53.172;5.416;2022-09-09T03:22:38;15.80;99.90
54590;DHT22;40485;53.172;5.416;2022-09-09T03:25:04;15.70;99.90
54590;DHT22;40485;53.172;5.416;2022-09-09T03:27:31;15.70;99.90
54590;DHT22;40485;53.172;5.416;2022-09-09T03:29:56;15.70;99.90
54590;DHT22;40485;53.172;5.416;2022-09-09T03:32:23;15.80;99.90
54590;DHT22;40485;53.172;5.416;2022-09-09T03:34:51;15.70;99.90
54590;DHT22;40485;53.172;5.416;2022-09-09T03:37:20;15.70;99.90
54590;DHT22;40485;53.172;5.416;2022-09-09T03:39:46;15.70;99.90
54590;DHT22;40485;53.172;5.416;2022-09-09T03:42:15;15.70;99.90
54590;DHT22;40485;53.172;5.416;2022-09-09T03:44:44;15.70;99.90
54590;DHT22;40485;53.172;5.416;2022-09-09T03:47:10;15.60;99.90
54590;DHT22;40485;53.172;5.416;2022-09-09T03:49:36;15.60;99.90
54590;DHT22;40485;53.172;5.416;2022-09-09T03:52:01;15.60;99.90
54590;DHT22;40485;53.172;5.416;2022-09-09T03:54:27;15.60;99.90
54590;DHT22;40485;53.172;5.416;2022-09-09T03:56:53;15.70;99.90
54590;DHT22;40485;53.172;5.416;2022-09-09T03:59:19;15.60;99.90
54590;DHT22;40485;53.172;5.416;2022-09-09T04:01:45;15.60;99.90
54590;DHT22;40485;53.172;5.416;2022-09-09T04:04:12;15.60;99.90
54590;DHT22;40485;53.172;5.416;2022-09-09T04:06:38;15.50;99.90
54590;DHT22;40485;53.172;5.416;2022-09-09T04:09:03;15.50;99.90
54590;DHT22;40485;53.172;5.416;2022-09-09T04:11:29;15.50;99.90
54590;DHT22;40485;53.172;5.416;2022-09-09T04:13:55;15.40;99.90
54590;DHT22;40485;53.172;5.416;2022-09-09T04:16:20;15.40;99.90
54590;DHT22;40485;53.172;5.416;2022-09-09T04:18:46;15.40;99.90
54590;DHT22;40485;53.172;5.416;2022-09-09T04:21:12;15.30;99.90
54590;DHT22;40485;53.172;5.416;2022-09-09T04:23:38;15.40;99.90
54590;DHT22;40485;53.172;5.416;2022-09-09T04:26:05;15.30;99.90
54590;DHT22;40485;53.172;5.416;2022-09-09T04:28:33;15.30;99.90
54590;DHT22;40485;53.172;5.416;2022-09-09T04:31:13;15.20;99.90
54590;DHT22;40485;53.172;5.416;2022-09-09T04:33:40;15.10;99.90
54590;DHT22;40485;53.172;5.416;2022-09-09T04:36:06;15.30;99.90
54590;DHT22;40485;53.172;5.416;2022-09-09T04:38:32;15.20;99.90
54590;DHT22;40485;53.172;5.416;2022-09-09T04:40:57;15.20;99.90
54590;DHT22;40485;53.172;5.416;2022-09-09T04:43:24;15.30;99.90
54590;DHT22;40485;53.172;5.416;2022-09-09T04:45:51;15.30;99.90
54590;DHT22;40485;53.172;5.416;2022-09-09T04:48:17;15.30;99.90
54590;DHT22;40485;53.172;5.416;2022-09-09T04:50:43;15.30;99.90
54590;DHT22;40485;53.172;5.416;2022-09-09T04:53:09;15.40;99.90
54590;DHT22;40485;53.172;5.416;2022-09-09T04:55:35;15.40;99.90
54590;DHT22;40485;53.172;5.416;2022-09-09T04:58:08;15.40;99.90
54590;DHT22;40485;53.172;5.416;2022-09-09T05:00:34;15.40;99.90
54590;DHT22;40485;53.172;5.416;2022-09-09T05:03:04;15.40;99.90
54590;DHT22;40485;53.172;5.416;2022-09-09T05:05:31;15.50;99.90
54590;DHT22;40485;53.172;5.416;2022-09-09T05:08:04;15.40;99.90
54590;DHT22;40485;53.172;5.416;2022-09-09T05:10:31;15.50;99.90
54590;DHT22;40485;53.172;5.416;2022-09-09T05:12:57;15.40;99.90
54590;DHT22;40485;53.172;5.416;2022-09-09T05:15:22;15.50;99.90
54590;DHT22;40485;53.172;5.416;2022-09-09T05:17:48;15.50;99.90
54590;DHT22;40485;53.172;5.416;2022-09-09T05:20:14;15.40;99.90
54590;DHT22;40485;53.172;5.416;2022-09-09T05:22:39;15.40;99.90
54590;DHT22;40485;53.172;5.416;2022-09-09T05:25:06;15.40;99.90
54590;DHT22;40485;53.172;5.416;2022-09-09T05:27:34;15.40;99.90
54590;DHT22;40485;53.172;5.416;2022-09-09T05:29:59;15.30;99.90
54590;DHT22;40485;53.172;5.416;2022-09-09T05:32:25;15.30;99.90
54590;DHT22;40485;53.172;5.416;2022-09-09T05:34:51;15.20;99.90
54590;DHT22;40485;53.172;5.416;2022-09-09T05:37:18;15.20;99.90
54590;DHT22;40485;53.172;5.416;2022-09-09T05:39:44;15.10;99.90
54590;DHT22;40485;53.172;5.416;2022-09-09T05:42:10;15.10;99.90
54590;DHT22;40485;53.172;5.416;2022-09-09T05:44:35;15.10;99.90
54590;DHT22;40485;53.172;5.416;2022-09-09T05:47:02;15.00;99.90
54590;DHT22;40485;53.172;5.416;2022-09-09T05:49:28;15.00;99.90
54590;DHT22;40485;53.172;5.416;2022-09-09T05:51:53;15.00;99.90
54590;DHT22;40485;53.172;5.416;2022-09-09T05:54:19;15.00;99.90
54590;DHT22;40485;53.172;5.416;2022-09-09T05:56:45;15.00;99.90
54590;DHT22;40485;53.172;5.416;2022-09-09T05:59:10;14.90;99.90
54590;DHT22;40485;53.172;5.416;2022-09-09T06:01:38;14.90;99.90
54590;DHT22;40485;53.172;5.416;2022-09-09T06:04:07;14.90;99.90
54590;DHT22;40485;53.172;5.416;2022-09-09T06:06:36;15.00;99.90
54590;DHT22;40485;53.172;5.416;2022-09-09T06:09:03;15.00;99.90
54590;DHT22;40485;53.172;5.416;2022-09-09T06:11:34;15.00;99.90
54590;DHT22;40485;53.172;5.416;2022-09-09T06:14:02;15.00;99.90
54590;DHT22;40485;53.172;5.416;2022-09-09T06:16:29;15.00;99.90
54590;DHT22;40485;53.172;5.416;2022-09-09T06:18:56;14.90;99.90
54590;DHT22;40485;53.172;5.416;2022-09-09T06:21:29;15.10;99.90
54590;DHT22;40485;53.172;5.416;2022-09-09T06:23:56;15.00;99.90
54590;DHT22;40485;53.172;5.416;2022-09-09T06:26:37;15.00;99.90
54590;DHT22;40485;53.172;5.416;2022-09-09T06:29:03;15.00;99.90
54590;DHT22;40485;53.172;5.416;2022-09-09T06:31:31;15.00;99.90
54590;DHT22;40485;53.172;5.416;2022-09-09T06:33:58;15.00;99.90
54590;DHT22;40485;53.172;5.416;2022-09-09T06:36:32;15.00;99.90
54590;DHT22;40485;53.172;5.416;2022-09-09T06:38:58;15.00;99.90
54590;DHT22;40485;53.172;5.416;2022-09-09T06:41:26;15.00;99.90
54590;DHT22;40485;53.172;5.416;2022-09-09T06:43:52;15.10;99.90
54590;DHT22;40485;53.172;5.416;2022-09-09T06:46:23;15.10;99.90
54590;DHT22;40485;53.172;5.416;2022-09-09T06:48:49;15.00;99.90
54590;DHT22;40485;53.172;5.416;2022-09-09T06:51:17;15.10;99.90
54590;DHT22;40485;53.172;5.416;2022-09-09T06:53:44;15.10;99.90
54590;DHT22;40485;53.172;5.416;2022-09-09T06:58:40;15.10;99.90
54590;DHT22;40485;53.172;5.416;2022-09-09T07:01:14;15.20;99.90
54590;DHT22;40485;53.172;5.416;2022-09-09T07:03:40;15.20;99.90
54590;DHT22;40485;53.172;5.416;2022-09-09T07:06:09;15.40;99.90
54590;DHT22;40485;53.172;5.416;2022-09-09T07:08:39;15.50;99.90
54590;DHT22;40485;53.172;5.416;2022-09-09T07:11:07;15.70;99.90
54590;DHT22;40485;53.172;5.416;2022-09-09T07:13:34;15.60;99.90
54590;DHT22;40485;53.172;5.416;2022-09-09T07:16:04;15.70;99.90
54590;DHT22;40485;53.172;5.416;2022-09-09T07:18:30;15.80;99.90
54590;DHT22;40485;53.172;5.416;2022-09-09T07:20:56;15.90;99.90
54590;DHT22;40485;53.172;5.416;2022-09-09T07:23:23;15.90;99.90
54590;DHT22;40485;53.172;5.416;2022-09-09T07:25:48;16.10;99.90
54590;DHT22;40485;53.172;5.416;2022-09-09T07:28:14;16.10;99.90
54590;DHT22;40485;53.172;5.416;2022-09-09T07:30:40;16.20;99.90
54590;DHT22;40485;53.172;5.416;2022-09-09T07:33:06;16.20;99.90
54590;DHT22;40485;53.172;5.416;2022-09-09T07:35:32;16.20;99.90
54590;DHT22;40485;53.172;5.416;2022-09-09T07:38:00;16.30;99.90
54590;DHT22;40485;53.172;5.416;2022-09-09T07:40:26;16.40;99.90
54590;DHT22;40485;53.172;5.416;2022-09-09T07:42:52;16.40;99.90
54590;DHT22;40485;53.172;5.416;2022-09-09T07:45:18;16.50;99.90
54590;DHT22;40485;53.172;5.416;2022-09-09T07:47:44;16.50;99.90
54590;DHT22;40485;53.172;5.416;2022-09-09T07:50:10;16.60;99.90
54590;DHT22;40485;53.172;5.416;2022-09-09T07:52:37;16.60;99.90
54590;DHT22;40485;53.172;5.416;2022-09-09T07:55:03;16.60;99.90
54590;DHT22;40485;53.172;5.416;2022-09-09T07:57:29;16.60;99.90
54590;DHT22;40485;53.172;5.416;2022-09-09T07:59:56;16.70;99.90
54590;DHT22;40485;53.172;5.416;2022-09-09T08:02:23;16.70;99.90
54590;DHT22;40485;53.172;5.416;2022-09-09T08:04:49;16.70;99.90
54590;DHT22;40485;53.172;5.416;2022-09-09T08:07:15;16.80;99.90
54590;DHT22;40485;53.172;5.416;2022-09-09T08:09:41;16.80;99.90
54590;DHT22;40485;53.172;5.416;2022-09-09T08:12:07;16.80;99.90
54590;DHT22;40485;53.172;5.416;2022-09-09T08:14:34;16.80;99.90
54590;DHT22;40485;53.172;5.416;2022-09-09T08:17:00;16.90;99.90
54590;DHT22;40485;53.172;5.416;2022-09-09T08:19:26;17.00;99.90
54590;DHT22;40485;53.172;5.416;2022-09-09T08:21:54;17.00;99.90
54590;DHT22;40485;53.172;5.416;2022-09-09T08:24:20;17.00;99.90
54590;DHT22;40485;53.172;5.416;2022-09-09T08:26:47;17.00;99.90
54590;DHT22;40485;53.172;5.416;2022-09-09T08:29:16;17.10;99.90
54590;DHT22;40485;53.172;5.416;2022-09-09T08:31:48;17.10;99.90
54590;DHT22;40485;53.172;5.416;2022-09-09T08:34:14;17.10;99.90
54590;DHT22;40485;53.172;5.416;2022-09-09T08:36:44;17.10;99.90
54590;DHT22;40485;53.172;5.416;2022-09-09T08:39:12;17.10;99.90
54590;DHT22;40485;53.172;5.416;2022-09-09T08:54:45;17.20;99.90
54590;DHT22;40485;53.172;5.416;2022-09-09T08:57:20;17.20;99.90
54590;DHT22;40485;53.172;5.416;2022-09-09T08:59:50;17.20;99.90
54590;DHT22;40485;53.172;5.416;2022-09-09T09:05:41;17.20;99.90
54590;DHT22;40485;53.172;5.416;2022-09-09T09:11:06;17.30;99.90
54590;DHT22;40485;53.172;5.416;2022-09-09T09:13:58;17.40;99.90
54590;DHT22;40485;53.172;5.416;2022-09-09T09:19:16;17.80;99.90
54590;DHT22;40485;53.172;5.416;2022-09-09T09:21:48;18.00;99.90
54590;DHT22;40485;53.172;5.416;2022-09-09T09:27:18;18.30;99.90
54590;DHT22;40485;53.172;5.416;2022-09-09T09:29:48;18.40;99.90
54590;DHT22;40485;53.172;5.416;2022-09-09T09:32:18;18.30;99.90
54590;DHT22;40485;53.172;5.416;2022-09-09T09:34:56;18.30;99.90
54590;DHT22;40485;53.172;5.416;2022-09-09T09:37:28;18.30;99.90
54590;DHT22;40485;53.172;5.416;2022-09-09T09:39:54;18.20;99.90
54590;DHT22;40485;53.172;5.416;2022-09-09T09:42:20;18.10;99.90
54590;DHT22;40485;53.172;5.416;2022-09-09T09:44:46;18.00;99.90
54590;DHT22;40485;53.172;5.416;2022-09-09T09:47:16;18.10;99.90
54590;DHT22;40485;53.172;5.416;2022-09-09T09:49:58;18.10;99.90
54590;DHT22;40485;53.172;5.416;2022-09-09T09:52:29;18.30;99.90
54590;DHT22;40485;53.172;5.416;2022-09-09T09:54:57;18.50;99.90
54590;DHT22;40485;53.172;5.416;2022-09-09T09:57:26;18.60;99.70
54590;DHT22;40485;53.172;5.416;2022-09-09T10:00:04;19.00;99.50
54590;DHT22;40485;53.172;5.416;2022-09-09T10:02:41;19.10;99.30
54590;DHT22;40485;53.172;5.416;2022-09-09T10:05:23;19.20;98.60
54590;DHT22;40485;53.172;5.416;2022-09-09T10:08:13;19.40;98.20
54590;DHT22;40485;53.172;5.416;2022-09-09T10:23:51;19.10;97.10
54590;DHT22;40485;53.172;5.416;2022-09-09T10:26:51;19.00;97.10
54590;DHT22;40485;53.172;5.416;2022-09-09T10:40:38;18.80;97.50
54590;DHT22;40485;53.172;5.416;2022-09-09T10:53:00;19.40;97.30
54590;DHT22;40485;53.172;5.416;2022-09-09T10:55:38;19.60;96.50
54590;DHT22;40485;53.172;5.416;2022-09-09T10:58:05;19.60;96.20
54590;DHT22;40485;53.172;5.416;2022-09-09T11:00:42;19.60;96.00
54590;DHT22;40485;53.172;5.416;2022-09-09T11:03:24;19.70;95.90
54590;DHT22;40485;53.172;5.416;2022-09-09T11:06:00;19.80;95.70
54590;DHT22;40485;53.172;5.416;2022-09-09T11:08:28;20.00;95.20
54590;DHT22;40485;53.172;5.416;2022-09-09T11:11:16;20.20;95.20
54590;DHT22;40485;53.172;5.416;2022-09-09T11:18:55;20.10;94.90
54590;DHT22;40485;53.172;5.416;2022-09-09T11:21:33;20.10;95.20
54590;DHT22;40485;53.172;5.416;2022-09-09T11:24:09;20.10;95.50
54590;DHT22;40485;53.172;5.416;2022-09-09T11:26:44;20.00;95.30
54590;DHT22;40485;53.172;5.416;2022-09-09T11:29:36;19.90;95.60
54590;DHT22;40485;53.172;5.416;2022-09-09T11:32:44;19.80;95.40
54590;DHT22;40485;53.172;5.416;2022-09-09T11:35:40;19.70;95.40
54590;DHT22;40485;53.172;5.416;2022-09-09T11:40:45;19.50;95.00
54590;DHT22;40485;53.172;5.416;2022-09-09T11:43:29;19.50;95.30
54590;DHT22;40485;53.172;5.416;2022-09-09T11:45:59;19.50;95.50
54590;DHT22;40485;53.172;5.416;2022-09-09T11:48:33;19.50;95.30
54590;DHT22;40485;53.172;5.416;2022-09-09T11:51:06;19.50;95.90
54590;DHT22;40485;53.172;5.416;2022-09-09T11:53:34;19.50;95.40
54590;DHT22;40485;53.172;5.416;2022-09-09T11:56:11;19.50;95.50
54590;DHT22;40485;53.172;5.416;2022-09-09T11:59:05;19.50;95.30
54590;DHT22;40485;53.172;5.416;2022-09-09T12:01:36;19.40;95.40
54590;DHT22;40485;53.172;5.416;2022-09-09T12:04:09;19.50;95.70
54590;DHT22;40485;53.172;5.416;2022-09-09T12:06:45;19.30;95.60
54590;DHT22;40485;53.172;5.416;2022-09-09T12:09:18;19.30;96.10
54590;DHT22;40485;53.172;5.416;2022-09-09T12:11:45;19.30;96.40
54590;DHT22;40485;53.172;5.416;2022-09-09T12:14:36;19.30;96.80
54590;DHT22;40485;53.172;5.416;2022-09-09T12:17:20;19.30;96.80
54590;DHT22;40485;53.172;5.416;2022-09-09T12:19:48;19.40;96.90
54590;DHT22;40485;53.172;5.416;2022-09-09T12:22:38;19.50;97.00
54590;DHT22;40485;53.172;5.416;2022-09-09T12:28:16;19.80;97.20
54590;DHT22;40485;53.172;5.416;2022-09-09T12:33:40;19.80;96.50
54590;DHT22;40485;53.172;5.416;2022-09-09T12:36:20;19.80;96.60
54590;DHT22;40485;53.172;5.416;2022-09-09T12:38:46;19.70;96.50
54590;DHT22;40485;53.172;5.416;2022-09-09T12:41:23;19.60;96.40
54590;DHT22;40485;53.172;5.416;2022-09-09T12:43:50;19.60;96.40
54590;DHT22;40485;53.172;5.416;2022-09-09T12:46:38;19.60;96.20
54590;DHT22;40485;53.172;5.416;2022-09-09T12:49:18;19.50;96.10
54590;DHT22;40485;53.172;5.416;2022-09-09T12:51:48;19.60;96.30
54590;DHT22;40485;53.172;5.416;2022-09-09T12:54:14;19.60;96.40
54590;DHT22;40485;53.172;5.416;2022-09-09T12:56:45;19.80;96.30
54590;DHT22;40485;53.172;5.416;2022-09-09T12:59:41;19.80;96.20
54590;DHT22;40485;53.172;5.416;2022-09-09T13:02:25;19.90;96.00
54590;DHT22;40485;53.172;5.416;2022-09-09T13:04:51;19.90;96.10
54590;DHT22;40485;53.172;5.416;2022-09-09T13:07:18;19.90;96.10
54590;DHT22;40485;53.172;5.416;2022-09-09T13:09:46;20.00;96.10
54590;DHT22;40485;53.172;5.416;2022-09-09T13:12:18;20.20;96.30
54590;DHT22;40485;53.172;5.416;2022-09-09T13:14:50;20.30;95.70
54590;DHT22;40485;53.172;5.416;2022-09-09T13:17:22;20.30;95.50
54590;DHT22;40485;53.172;5.416;2022-09-09T13:19:49;20.30;95.30
54590;DHT22;40485;53.172;5.416;2022-09-09T13:22:23;20.30;95.50
54590;DHT22;40485;53.172;5.416;2022-09-09T13:27:34;20.30;95.20
54590;DHT22;40485;53.172;5.416;2022-09-09T13:30:01;20.20;95.00
54590;DHT22;40485;53.172;5.416;2022-09-09T13:32:28;20.20;94.90
54590;DHT22;40485;53.172;5.416;2022-09-09T13:34:57;20.30;94.90
54590;DHT22;40485;53.172;5.416;2022-09-09T13:37:36;20.50;95.10
54590;DHT22;40485;53.172;5.416;2022-09-09T13:40:03;20.80;94.90
54590;DHT22;40485;53.172;5.416;2022-09-09T13:42:32;21.10;94.50
54590;DHT22;40485;53.172;5.416;2022-09-09T13:45:01;21.40;93.70
54590;DHT22;40485;53.172;5.416;2022-09-09T13:47:35;21.60;93.10
54590;DHT22;40485;53.172;5.416;2022-09-09T13:50:24;21.60;93.10
54590;DHT22;40485;53.172;5.416;2022-09-09T13:52:55;21.80;93.20
54590;DHT22;40485;53.172;5.416;2022-09-09T13:55:24;21.90;92.70
54590;DHT22;40485;53.172;5.416;2022-09-09T14:00:18;21.90;92.50
54590;DHT22;40485;53.172;5.416;2022-09-09T14:02:43;21.90;92.40
54590;DHT22;40485;53.172;5.416;2022-09-09T14:05:10;21.60;91.70
54590;DHT22;40485;53.172;5.416;2022-09-09T14:07:38;21.40;92.00
54590;DHT22;40485;53.172;5.416;2022-09-09T14:10:05;21.30;92.50
54590;DHT22;40485;53.172;5.416;2022-09-09T14:12:31;21.20;92.60
54590;DHT22;40485;53.172;5.416;2022-09-09T14:14:57;21.10;92.70
54590;DHT22;40485;53.172;5.416;2022-09-09T14:17:22;21.00;92.80
54590;DHT22;40485;53.172;5.416;2022-09-09T14:19:48;21.00;92.80
54590;DHT22;40485;53.172;5.416;2022-09-09T14:22:14;21.00;93.00
54590;DHT22;40485;53.172;5.416;2022-09-09T14:24:39;20.80;93.10
54590;DHT22;40485;53.172;5.416;2022-09-09T14:27:06;20.80;93.10
54590;DHT22;40485;53.172;5.416;2022-09-09T14:29:31;20.60;93.30
54590;DHT22;40485;53.172;5.416;2022-09-09T14:31:58;20.50;93.30
54590;DHT22;40485;53.172;5.416;2022-09-09T14:34:26;20.40;93.90
54590;DHT22;40485;53.172;5.416;2022-09-09T14:36:52;20.20;93.90
54590;DHT22;40485;53.172;5.416;2022-09-09T14:39:17;20.00;95.10
54590;DHT22;40485;53.172;5.416;2022-09-09T14:41:43;19.80;96.10
54590;DHT22;40485;53.172;5.416;2022-09-09T14:44:09;19.40;96.60
54590;DHT22;40485;53.172;5.416;2022-09-09T14:46:35;19.10;97.30
54590;DHT22;40485;53.172;5.416;2022-09-09T14:49:01;19.00;98.00
54590;DHT22;40485;53.172;5.416;2022-09-09T14:51:27;18.80;98.50
54590;DHT22;40485;53.172;5.416;2022-09-09T14:53:56;18.80;98.80
54590;DHT22;40485;53.172;5.416;2022-09-09T14:56:28;18.60;99.20
54590;DHT22;40485;53.172;5.416;2022-09-09T14:58:56;18.60;99.50
54590;DHT22;40485;53.172;5.416;2022-09-09T15:01:23;18.60;99.90
54590;DHT22;40485;53.172;5.416;2022-09-09T15:04:15;18.60;99.90
54590;DHT22;40485;53.172;5.416;2022-09-09T15:06:42;18.70;99.90
54590;DHT22;40485;53.172;5.416;2022-09-09T15:09:10;18.70;99.90
54590;DHT22;40485;53.172;5.416;2022-09-09T15:11:37;18.80;99.90
54590;DHT22;40485;53.172;5.416;2022-09-09T15:14:04;18.80;99.90
54590;DHT22;40485;53.172;5.416;2022-09-09T15:16:30;18.80;99.90
54590;DHT22;40485;53.172;5.416;2022-09-09T15:18:59;18.70;99.90
54590;DHT22;40485;53.172;5.416;2022-09-09T15:21:27;18.80;99.90
54590;DHT22;40485;53.172;5.416;2022-09-09T15:23:54;18.90;99.90
54590;DHT22;40485;53.172;5.416;2022-09-09T15:26:20;19.00;99.90
54590;DHT22;40485;53.172;5.416;2022-09-09T15:28:46;19.20;99.90
54590;DHT22;40485;53.172;5.416;2022-09-09T15:31:18;19.30;99.90
54590;DHT22;40485;53.172;5.416;2022-09-09T15:33:48;19.20;99.90
54590;DHT22;40485;53.172;5.416;2022-09-09T15:36:21;19.10;99.90
54590;DHT22;40485;53.172;5.416;2022-09-09T15:38:47;19.00;99.90
54590;DHT22;40485;53.172;5.416;2022-09-09T15:41:14;19.00;99.90
54590;DHT22;40485;53.172;5.416;2022-09-09T15:43:46;18.90;99.90
54590;DHT22;40485;53.172;5.416;2022-09-09T15:48:54;18.80;99.90
54590;DHT22;40485;53.172;5.416;2022-09-09T15:51:20;19.00;99.90
54590;DHT22;40485;53.172;5.416;2022-09-09T15:53:46;19.10;99.90
54590;DHT22;40485;53.172;5.416;2022-09-09T15:56:12;19.20;99.90
54590;DHT22;40485;53.172;5.416;2022-09-09T15:58:37;19.30;99.90
54590;DHT22;40485;53.172;5.416;2022-09-09T16:01:08;19.50;99.90
54590;DHT22;40485;53.172;5.416;2022-09-09T16:03:37;19.60;99.90
54590;DHT22;40485;53.172;5.416;2022-09-09T16:06:05;19.70;99.40
54590;DHT22;40485;53.172;5.416;2022-09-09T16:08:32;19.80;99.30
54590;DHT22;40485;53.172;5.416;2022-09-09T16:11:11;19.90;98.60
54590;DHT22;40485;53.172;5.416;2022-09-09T16:13:38;19.90;98.50
54590;DHT22;40485;53.172;5.416;2022-09-09T16:16:10;19.70;98.30
54590;DHT22;40485;53.172;5.416;2022-09-09T16:18:41;19.70;98.20
54590;DHT22;40485;53.172;5.416;2022-09-09T16:21:08;19.70;98.30
54590;DHT22;40485;53.172;5.416;2022-09-09T16:23:38;19.60;98.20
54590;DHT22;40485;53.172;5.416;2022-09-09T16:26:04;19.50;98.30
54590;DHT22;40485;53.172;5.416;2022-09-09T16:28:30;19.40;98.60
54590;DHT22;40485;53.172;5.416;2022-09-09T16:30:56;19.30;98.90
54590;DHT22;40485;53.172;5.416;2022-09-09T16:33:23;19.30;98.90
54590;DHT22;40485;53.172;5.416;2022-09-09T16:35:49;19.20;99.10
54590;DHT22;40485;53.172;5.416;2022-09-09T16:38:15;19.20;99.30
54590;DHT22;40485;53.172;5.416;2022-09-09T16:40:40;19.10;99.40
54590;DHT22;40485;53.172;5.416;2022-09-09T16:43:07;19.20;99.70
54590;DHT22;40485;53.172;5.416;2022-09-09T16:45:33;19.10;99.80
54590;DHT22;40485;53.172;5.416;2022-09-09T16:47:59;19.10;99.90
54590;DHT22;40485;53.172;5.416;2022-09-09T16:50:26;19.10;99.80
54590;DHT22;40485;53.172;5.416;2022-09-09T16:52:52;19.10;99.90
54590;DHT22;40485;53.172;5.416;2022-09-09T16:55:18;18.90;99.90
54590;DHT22;40485;53.172;5.416;2022-09-09T16:57:46;19.00;99.90
54590;DHT22;40485;53.172;5.416;2022-09-09T17:00:15;19.00;99.90
54590;DHT22;40485;53.172;5.416;2022-09-09T17:02:44;18.90;99.90
54590;DHT22;40485;53.172;5.416;2022-09-09T17:05:10;18.90;99.90
54590;DHT22;40485;53.172;5.416;2022-09-09T17:07:37;18.90;99.90
54590;DHT22;40485;53.172;5.416;2022-09-09T17:10:04;19.00;99.90
54590;DHT22;40485;53.172;5.416;2022-09-09T17:12:30;18.90;99.90
54590;DHT22;40485;53.172;5.416;2022-09-09T17:14:55;18.80;99.90
54590;DHT22;40485;53.172;5.416;2022-09-09T17:17:22;18.80;99.90
54590;DHT22;40485;53.172;5.416;2022-09-09T17:19:47;18.80;99.90
54590;DHT22;40485;53.172;5.416;2022-09-09T17:22:14;18.70;99.90
54590;DHT22;40485;53.172;5.416;2022-09-09T17:24:40;18.60;99.90
54590;DHT22;40485;53.172;5.416;2022-09-09T17:27:06;18.70;99.90
54590;DHT22;40485;53.172;5.416;2022-09-09T17:29:32;18.70;99.90
54590;DHT22;40485;53.172;5.416;2022-09-09T17:32:01;18.70;99.90
54590;DHT22;40485;53.172;5.416;2022-09-09T17:34:27;18.70;99.90
54590;DHT22;40485;53.172;5.416;2022-09-09T17:36:53;18.60;99.90
54590;DHT22;40485;53.172;5.416;2022-09-09T17:39:19;18.70;99.90
54590;DHT22;40485;53.172;5.416;2022-09-09T17:41:44;18.60;99.90
54590;DHT22;40485;53.172;5.416;2022-09-09T17:44:11;18.60;99.90
54590;DHT22;40485;53.172;5.416;2022-09-09T17:46:41;18.50;99.90
54590;DHT22;40485;53.172;5.416;2022-09-09T17:49:12;18.50;99.90
54590;DHT22;40485;53.172;5.416;2022-09-09T17:51:39;18.50;99.90
54590;DHT22;40485;53.172;5.416;2022-09-09T17:54:12;18.50;99.90
54590;DHT22;40485;53.172;5.416;2022-09-09T17:56:38;18.40;99.90
54590;DHT22;40485;53.172;5.416;2022-09-09T17:59:05;18.40;99.90
54590;DHT22;40485;53.172;5.416;2022-09-09T18:01:35;18.40;99.90